createdAt,value
2022-10-21T00:00:57.338Z,39.53
2022-10-21T00:03:28.495Z,41.83
2022-10-21T00:05:55.245Z,37.10
2022-10-21T00:08:23.442Z,35.53
2022-10-21T00:10:56.915Z,41.30
2022-10-21T00:13:25.651Z,41.05
2022-10-21T00:16:07.055Z,41.72
2022-10-21T00:18:36.661Z,34.08
2022-10-21T00:21:09.960Z,36.42
2022-10-21T00:23:37.222Z,35.40
2022-10-21T00:26:04.962Z,34.75
2022-10-21T00:28:32.593Z,35.90
2022-10-21T00:30:59.817Z,35.55
2022-10-21T00:33:28.626Z,33.55
2022-10-21T00:36:04.025Z,34.03
2022-10-21T00:38:31.901Z,30.58
2022-10-21T00:40:59.484Z,37.83
2022-10-21T00:43:28.043Z,34.55
2022-10-21T00:46:05.524Z,36.53
2022-10-21T00:48:45.077Z,34.70
2022-10-21T00:51:17.762Z,34.45
2022-10-21T00:53:49.230Z,33.67
2022-10-21T00:56:26.714Z,33.20
2022-10-21T00:58:59.417Z,38.97
2022-10-21T01:01:26.384Z,39.47
2022-10-21T01:03:53.203Z,33.00
2022-10-21T01:06:26.284Z,39.63
2022-10-21T01:08:55.337Z,41.63
2022-10-21T01:11:24.678Z,35.78
2022-10-21T01:14:22.625Z,33.30
2022-10-21T01:17:43.616Z,31.92
2022-10-21T01:20:31.393Z,36.92
2022-10-21T01:23:20.779Z,34.85
2022-10-21T01:26:22.928Z,43.95
2022-10-21T01:29:39.568Z,34.72
2022-10-21T01:32:38.742Z,31.02
2022-10-21T01:35:33.640Z,38.47
2022-10-21T01:38:20.091Z,32.17
2022-10-21T01:41:13.524Z,27.52
2022-10-21T01:44:19.107Z,29.75
2022-10-21T01:46:57.517Z,34.53
2022-10-21T01:49:34.334Z,26.63
2022-10-21T01:52:03.110Z,28.17
2022-10-21T01:54:47.904Z,28.67
2022-10-21T01:57:22.021Z,29.25
2022-10-21T01:59:51.783Z,25.38
2022-10-21T02:02:22.147Z,29.10
2022-10-21T02:04:51.712Z,40.28
2022-10-21T02:07:18.668Z,34.90
2022-10-21T02:09:45.402Z,38.53
2022-10-21T02:12:12.679Z,36.92
2022-10-21T02:14:48.617Z,42.00
2022-10-21T02:17:19.774Z,28.15
2022-10-21T02:19:46.611Z,33.70
2022-10-21T02:22:20.681Z,31.20
2022-10-21T02:24:57.193Z,25.08
2022-10-21T02:27:24.582Z,30.40
2022-10-21T02:29:57.140Z,22.55
2022-10-21T02:32:47.782Z,21.48
2022-10-21T02:36:08.332Z,26.58
2022-10-21T02:38:49.486Z,19.48
2022-10-21T02:41:23.278Z,21.63
2022-10-21T02:43:58.289Z,27.52
2022-10-21T02:46:26.390Z,25.85
2022-10-21T02:48:53.720Z,12.32
2022-10-21T02:51:20.532Z,23.02
2022-10-21T02:53:47.310Z,23.17
2022-10-21T02:56:14.111Z,22.35
2022-10-21T02:58:40.844Z,17.48
2022-10-21T03:01:07.637Z,22.92
2022-10-21T03:03:34.428Z,22.52
2022-10-21T03:06:01.207Z,18.70
2022-10-21T03:08:28.079Z,26.13
2022-10-21T03:10:54.952Z,20.33
2022-10-21T03:13:22.883Z,25.00
2022-10-21T03:15:51.181Z,29.50
2022-10-21T03:18:18.895Z,25.77
2022-10-21T03:20:50.155Z,26.52
2022-10-21T03:23:18.746Z,26.45
2022-10-21T03:25:45.801Z,27.77
2022-10-21T03:28:13.396Z,25.83
2022-10-21T03:30:40.229Z,28.10
2022-10-21T03:33:06.956Z,24.63
2022-10-21T03:35:33.726Z,21.85
2022-10-21T03:38:00.454Z,26.35
2022-10-21T03:40:30.344Z,24.42
2022-10-21T03:42:58.568Z,29.60
2022-10-21T03:45:26.214Z,29.90
2022-10-21T03:47:53.272Z,26.50
2022-10-21T03:50:23.762Z,29.80
2022-10-21T03:52:53.563Z,32.55
2022-10-21T03:55:21.030Z,29.77
2022-10-21T03:57:48.420Z,26.35
2022-10-21T04:00:15.885Z,31.70
2022-10-21T04:02:43.145Z,29.17
2022-10-21T04:05:11.123Z,30.80
2022-10-21T04:07:38.571Z,36.78
2022-10-21T04:10:07.207Z,33.28
2022-10-21T04:12:34.265Z,31.15
2022-10-21T04:15:01.123Z,35.53
2022-10-21T04:17:27.964Z,35.70
2022-10-21T04:19:54.730Z,27.10
2022-10-21T04:22:21.559Z,32.75
2022-10-21T04:24:48.310Z,29.17
2022-10-21T04:27:15.087Z,29.77
2022-10-21T04:29:41.895Z,33.13
2022-10-21T04:32:08.635Z,28.45
2022-10-21T04:34:35.410Z,29.88
2022-10-21T04:37:04.874Z,34.95
2022-10-21T04:39:32.223Z,29.40
2022-10-21T04:41:59.210Z,34.97
2022-10-21T04:44:26.158Z,35.42
2022-10-21T04:46:53.076Z,30.63
2022-10-21T04:49:19.897Z,37.17
2022-10-21T04:51:46.744Z,32.80
2022-10-21T04:54:13.737Z,36.72
2022-10-21T04:56:41.774Z,38.00
2022-10-21T04:59:08.856Z,38.83
2022-10-21T05:01:35.855Z,52.72
2022-10-21T05:04:02.583Z,35.22
2022-10-21T05:06:29.380Z,42.72
2022-10-21T05:08:56.279Z,39.58
2022-10-21T05:11:23.149Z,46.03
2022-10-21T05:13:49.909Z,35.63
2022-10-21T05:16:16.727Z,59.53
2022-10-21T05:18:43.479Z,40.58
2022-10-21T05:21:10.202Z,44.30
2022-10-21T05:23:37.038Z,46.78
2022-10-21T05:26:04.008Z,44.90
2022-10-21T05:28:30.743Z,47.60
2022-10-21T05:30:57.528Z,37.50
2022-10-21T05:33:24.437Z,40.78
2022-10-21T05:36:07.684Z,39.00
2022-10-21T05:38:35.626Z,34.33
2022-10-21T05:41:02.881Z,38.38
2022-10-21T05:43:29.714Z,42.25
2022-10-21T05:45:57.113Z,42.50
2022-10-21T05:48:24.753Z,45.40
2022-10-21T05:50:54.192Z,43.92
2022-10-21T05:53:24.814Z,34.80
2022-10-21T05:56:01.316Z,48.28
2022-10-21T05:58:30.126Z,40.70
2022-10-21T06:00:57.918Z,34.13
2022-10-21T06:03:32.317Z,43.30
2022-10-21T06:06:06.617Z,43.60
2022-10-21T06:08:36.552Z,48.03
2022-10-21T06:11:10.191Z,52.90
2022-10-21T06:13:37.575Z,39.22
2022-10-21T06:18:39.328Z,42.53
2022-10-21T06:21:07.054Z,41.20
2022-10-21T06:23:34.492Z,42.53
2022-10-21T06:26:06.042Z,39.28
2022-10-21T06:28:36.035Z,39.20
2022-10-21T06:31:04.043Z,41.17
2022-10-21T06:33:30.830Z,33.42
2022-10-21T06:35:57.777Z,39.58
2022-10-21T06:38:36.647Z,37.55
2022-10-21T06:41:09.257Z,32.05
2022-10-21T06:43:39.626Z,39.95
2022-10-21T06:46:12.110Z,41.60
2022-10-21T06:48:39.735Z,37.35
2022-10-21T06:51:15.112Z,29.40
2022-10-21T06:53:43.096Z,27.45
2022-10-21T06:56:16.639Z,36.03
2022-10-21T06:58:47.861Z,36.38
2022-10-21T07:01:33.443Z,34.95
2022-10-21T07:04:00.940Z,33.67
2022-10-21T07:06:27.769Z,32.75
2022-10-21T07:08:58.985Z,23.75
2022-10-21T07:11:27.701Z,30.13
2022-10-21T07:13:55.249Z,19.85
2022-10-21T07:16:34.503Z,27.15
2022-10-21T07:19:01.583Z,29.70
2022-10-21T07:21:31.126Z,25.30
2022-10-21T07:23:59.935Z,29.17
2022-10-21T07:26:29.972Z,35.58
2022-10-21T07:28:59.657Z,28.60
2022-10-21T07:31:28.153Z,30.50
2022-10-21T07:33:55.362Z,32.15
2022-10-21T07:36:29.313Z,35.35
2022-10-21T07:39:02.333Z,34.63
2022-10-21T07:41:37.746Z,26.08
2022-10-21T07:44:06.280Z,26.10
2022-10-21T07:46:33.596Z,28.80
2022-10-21T07:49:00.961Z,30.33
2022-10-21T07:51:30.150Z,21.85
2022-10-21T07:54:00.610Z,25.88
2022-10-21T07:56:39.745Z,19.15
2022-10-21T07:59:12.417Z,23.63
2022-10-21T08:01:44.375Z,22.92
2022-10-21T08:04:15.573Z,29.85
2022-10-21T08:06:46.561Z,24.33
2022-10-21T08:09:14.699Z,22.15
2022-10-21T08:11:41.966Z,25.50
2022-10-21T08:14:10.626Z,23.63
2022-10-21T08:16:38.534Z,24.48
2022-10-21T08:19:07.150Z,25.15
2022-10-21T08:21:34.795Z,24.20
2022-10-21T08:24:03.745Z,32.83
2022-10-21T08:26:30.965Z,23.52
2022-10-21T08:31:25.543Z,31.17
2022-10-21T08:33:52.428Z,36.08
2022-10-21T08:36:22.763Z,31.58
2022-10-21T08:38:49.947Z,25.95
2022-10-21T08:41:28.885Z,35.90
2022-10-21T08:44:19.935Z,23.83
2022-10-21T08:46:57.111Z,30.42
2022-10-21T08:49:45.187Z,28.42
2022-10-21T08:52:21.264Z,28.90
2022-10-21T08:54:58.405Z,28.50
2022-10-21T08:57:25.734Z,24.58
2022-10-21T08:59:53.005Z,21.35
2022-10-21T09:02:35.289Z,22.25
2022-10-21T09:05:37.540Z,23.20
2022-10-21T09:08:25.007Z,19.98
2022-10-21T09:11:03.724Z,23.52
2022-10-21T09:14:35.701Z,26.52
2022-10-21T09:17:18.403Z,21.85
2022-10-21T09:19:53.863Z,13.45
2022-10-21T09:22:34.893Z,15.25
2022-10-21T09:25:27.441Z,11.52
2022-10-21T09:27:57.200Z,9.23
2022-10-21T09:30:25.485Z,7.75
2022-10-21T09:33:01.544Z,9.63
2022-10-21T09:35:43.653Z,8.52
2022-10-21T09:38:41.767Z,11.65
2022-10-21T09:41:19.521Z,6.05
2022-10-21T09:43:48.843Z,9.98
2022-10-21T09:46:17.068Z,9.60
2022-10-21T09:51:45.004Z,8.20
2022-10-21T09:54:19.601Z,9.93
2022-10-21T09:57:00.426Z,8.23
2022-10-21T09:59:32.847Z,8.20
2022-10-21T10:02:13.111Z,12.02
2022-10-21T10:04:39.975Z,7.05
2022-10-21T10:07:35.647Z,13.63
2022-10-21T10:10:24.662Z,10.48
2022-10-21T10:12:59.381Z,10.18
2022-10-21T10:15:36.936Z,5.50
2022-10-21T10:18:04.515Z,5.15
2022-10-21T10:20:31.275Z,7.97
2022-10-21T10:23:00.754Z,5.68
2022-10-21T10:25:38.782Z,7.78
2022-10-21T10:28:08.549Z,4.28
2022-10-21T10:30:54.021Z,8.48
2022-10-21T10:33:34.493Z,3.75
2022-10-21T10:36:09.442Z,5.40
2022-10-21T10:38:52.442Z,5.57
2022-10-21T10:41:19.454Z,4.53
2022-10-21T10:43:54.256Z,7.70
2022-10-21T10:46:31.864Z,5.20
2022-10-21T10:49:21.225Z,8.68
2022-10-21T10:52:11.858Z,7.65
2022-10-21T10:54:41.706Z,7.22
2022-10-21T10:57:38.969Z,7.72
2022-10-21T11:00:23.957Z,9.65
2022-10-21T11:03:25.806Z,5.35
2022-10-21T11:06:06.928Z,4.05
2022-10-21T11:08:43.394Z,7.68
2022-10-21T11:11:26.029Z,6.30
2022-10-21T11:13:54.052Z,7.13
2022-10-21T11:16:59.682Z,7.50
2022-10-21T11:20:00.426Z,6.03
2022-10-21T11:22:55.558Z,7.53
2022-10-21T11:25:39.103Z,8.40
2022-10-21T11:28:33.624Z,3.83
2022-10-21T11:31:30.344Z,5.80
2022-10-21T11:34:26.603Z,5.88
2022-10-21T11:37:25.302Z,4.25
2022-10-21T11:40:26.583Z,4.13
2022-10-21T11:42:58.308Z,3.30
2022-10-21T11:45:52.063Z,6.43
2022-10-21T11:48:55.079Z,4.68
2022-10-21T11:51:51.173Z,7.35
2022-10-21T11:54:35.486Z,4.72
2022-10-21T11:57:28.112Z,7.38
2022-10-21T12:00:05.735Z,6.78
2022-10-21T12:03:32.603Z,5.32
2022-10-21T12:06:04.975Z,6.50
2022-10-21T12:08:41.394Z,6.50
2022-10-21T12:11:43.839Z,4.63
2022-10-21T12:14:32.600Z,4.88
2022-10-21T12:17:05.587Z,7.43
2022-10-21T12:19:32.473Z,6.82
2022-10-21T12:21:59.763Z,3.97
2022-10-21T12:25:08.066Z,4.07
2022-10-21T12:27:55.651Z,7.28
2022-10-21T12:30:39.668Z,3.05
2022-10-21T12:33:31.182Z,3.45
2022-10-21T12:36:25.703Z,8.27
2022-10-21T12:38:58.731Z,2.58
2022-10-21T12:41:34.926Z,3.55
2022-10-21T12:44:01.595Z,3.95
2022-10-21T12:46:40.200Z,4.97
2022-10-21T12:49:30.616Z,6.00
2022-10-21T12:52:07.562Z,4.22
2022-10-21T12:55:03.212Z,5.00
2022-10-21T12:57:37.210Z,2.63
2022-10-21T13:00:27.251Z,3.80
2022-10-21T13:03:09.045Z,6.88
2022-10-21T13:05:38.549Z,5.95
2022-10-21T13:08:25.606Z,2.92
2022-10-21T13:11:06.934Z,3.75
2022-10-21T13:13:48.639Z,3.75
2022-10-21T13:16:18.703Z,5.03
2022-10-21T13:19:16.690Z,6.90
2022-10-21T13:21:49.649Z,5.15
2022-10-21T13:24:30.162Z,3.80
2022-10-21T13:27:04.408Z,2.63
2022-10-21T13:29:45.279Z,1.92
2022-10-21T13:32:15.161Z,4.25
2022-10-21T13:35:03.624Z,5.15
2022-10-21T13:37:42.601Z,3.90
2022-10-21T13:40:21.580Z,5.20
2022-10-21T13:42:57.708Z,4.65
2022-10-21T13:45:37.336Z,3.67
2022-10-21T13:48:16.728Z,3.95
2022-10-21T13:50:50.319Z,3.88
2022-10-21T13:53:22.896Z,2.92
2022-10-21T13:56:03.964Z,4.20
2022-10-21T13:58:36.068Z,5.13
2022-10-21T14:01:26.781Z,4.10
2022-10-21T14:04:12.078Z,2.47
2022-10-21T14:06:46.505Z,4.97
2022-10-21T14:09:23.763Z,5.22
2022-10-21T14:12:03.264Z,4.03
2022-10-21T14:14:33.244Z,4.47
2022-10-21T14:17:15.281Z,4.47
2022-10-21T14:19:47.802Z,2.75
2022-10-21T14:22:23.077Z,3.63
2022-10-21T14:25:01.707Z,3.80
2022-10-21T14:27:32.522Z,5.78
2022-10-21T14:30:05.282Z,2.80
2022-10-21T14:32:32.738Z,3.80
2022-10-21T14:35:24.369Z,4.03
2022-10-21T14:37:55.775Z,3.38
2022-10-21T14:40:42.737Z,4.38
2022-10-21T14:43:12.481Z,2.65
2022-10-21T14:45:47.735Z,2.67
2022-10-21T14:48:14.507Z,4.40
2022-10-21T14:50:43.331Z,3.85
2022-10-21T14:53:18.052Z,3.58
2022-10-21T14:55:50.735Z,3.17
2022-10-21T14:58:24.124Z,7.68
2022-10-21T15:01:00.750Z,4.60
2022-10-21T15:04:00.937Z,4.65
2022-10-21T15:06:36.943Z,5.72
2022-10-21T15:09:09.809Z,4.30
2022-10-21T15:11:45.852Z,5.70
2022-10-21T15:14:12.496Z,4.35
2022-10-21T15:16:51.661Z,4.78
2022-10-21T15:19:26.922Z,4.70
2022-10-21T15:22:03.554Z,5.70
2022-10-21T15:24:39.079Z,9.85
2022-10-21T15:27:06.213Z,3.42
2022-10-21T15:29:42.696Z,6.78
2022-10-21T15:32:13.463Z,6.65
2022-10-21T15:34:40.279Z,2.55
2022-10-21T15:37:07.432Z,4.78
2022-10-21T15:39:34.231Z,10.48
2022-10-21T15:42:01.700Z,3.08
2022-10-21T15:44:31.364Z,6.30
2022-10-21T15:47:01.661Z,5.63
2022-10-21T15:49:34.380Z,4.18
2022-10-21T15:52:01.461Z,8.25
2022-10-21T15:54:28.307Z,7.15
2022-10-21T15:56:55.532Z,4.13
2022-10-21T15:59:28.002Z,2.85
2022-10-21T16:01:56.510Z,4.53
2022-10-21T16:04:24.488Z,3.20
2022-10-21T16:06:53.094Z,4.55
2022-10-21T16:09:27.021Z,6.43
2022-10-21T16:12:00.337Z,4.10
2022-10-21T16:14:30.861Z,4.38
2022-10-21T16:16:59.523Z,4.18
2022-10-21T16:19:26.659Z,6.32
2022-10-21T16:21:53.617Z,8.23
2022-10-21T16:24:20.471Z,3.72
2022-10-21T16:26:49.838Z,3.38
2022-10-21T16:29:21.446Z,6.93
2022-10-21T16:31:49.017Z,6.35
2022-10-21T16:34:16.130Z,7.32
2022-10-21T16:36:43.519Z,4.00
2022-10-21T16:39:16.966Z,4.95
2022-10-21T16:41:43.762Z,4.60
2022-10-21T16:44:10.703Z,7.38
2022-10-21T16:46:44.136Z,9.18
2022-10-21T16:49:14.753Z,6.80
2022-10-21T16:51:47.658Z,6.72
2022-10-21T16:54:16.201Z,6.03
2022-10-21T16:56:42.981Z,3.35
2022-10-21T16:59:09.888Z,6.70
2022-10-21T17:01:37.536Z,4.57
2022-10-21T17:04:05.015Z,5.97
2022-10-21T17:06:32.392Z,5.65
2022-10-21T17:08:59.201Z,7.07
2022-10-21T17:11:38.092Z,6.28
2022-10-21T17:14:08.039Z,4.97
2022-10-21T17:16:34.858Z,13.00
2022-10-21T17:19:01.647Z,3.55
2022-10-21T17:21:32.342Z,7.03
2022-10-21T17:24:02.077Z,6.28
2022-10-21T17:26:36.631Z,4.03
2022-10-21T17:29:03.414Z,6.85
2022-10-21T17:31:31.345Z,8.55
2022-10-21T17:34:06.263Z,9.20
2022-10-21T17:36:35.022Z,5.75
2022-10-21T17:39:01.905Z,7.18
2022-10-21T17:41:28.738Z,5.55
2022-10-21T17:43:55.991Z,7.35
2022-10-21T17:46:25.320Z,7.20
2022-10-21T17:48:54.840Z,6.50
2022-10-21T17:51:23.738Z,10.25
2022-10-21T17:53:52.727Z,9.95
2022-10-21T17:56:20.182Z,7.15
2022-10-21T17:58:52.679Z,9.52
2022-10-21T18:01:21.318Z,8.95
2022-10-21T18:03:48.713Z,7.55
2022-10-21T18:06:16.150Z,9.05
2022-10-21T18:08:43.984Z,8.57
2022-10-21T18:11:14.950Z,10.10
2022-10-21T18:13:42.945Z,8.43
2022-10-21T18:16:14.736Z,11.70
2022-10-21T18:21:18.766Z,7.28
2022-10-21T18:23:49.167Z,13.98
2022-10-21T18:26:20.971Z,10.57
2022-10-21T18:29:00.309Z,19.75
2022-10-21T18:31:30.460Z,30.02
2022-10-21T18:34:01.001Z,129.38
2022-10-21T18:36:27.937Z,55.30
2022-10-21T18:38:55.030Z,31.25
2022-10-21T18:41:22.469Z,56.83
2022-10-21T18:43:57.338Z,304.05
2022-10-21T18:46:24.136Z,240.32
2022-10-21T18:48:51.448Z,208.05
2022-10-21T18:51:20.523Z,284.20
2022-10-21T18:53:51.693Z,617.28
2022-10-21T18:56:22.235Z,355.77
2022-10-21T18:58:50.227Z,290.95
2022-10-21T19:01:19.313Z,183.32
2022-10-21T19:03:46.330Z,397.25
2022-10-21T19:06:46.505Z,665.60
2022-10-21T19:09:21.052Z,476.05
2022-10-21T19:11:48.879Z,628.05
2022-10-21T19:14:17.762Z,529.55
2022-10-21T19:16:47.158Z,403.98
2022-10-21T19:19:16.124Z,206.57
2022-10-21T19:21:43.225Z,235.48
2022-10-21T19:24:10.444Z,236.25
2022-10-21T19:26:40.797Z,532.30
2022-10-21T19:29:16.877Z,143.38
2022-10-21T19:31:44.820Z,349.15
2022-10-21T19:34:21.314Z,172.07
2022-10-21T19:36:48.717Z,218.43
2022-10-21T19:39:18.194Z,218.00
2022-10-21T19:41:45.448Z,138.95
2022-10-21T19:44:12.409Z,138.77
2022-10-21T19:46:39.330Z,230.45
2022-10-21T19:49:08.618Z,154.05
2022-10-21T19:51:37.118Z,100.13
2022-10-21T19:54:08.964Z,35.60
2022-10-21T19:56:35.954Z,101.45
2022-10-21T19:59:04.177Z,33.35
2022-10-21T20:01:33.393Z,266.25
2022-10-21T20:04:01.971Z,282.13
2022-10-21T20:06:32.794Z,289.55
2022-10-21T20:09:04.812Z,353.83
2022-10-21T20:11:32.072Z,317.98
2022-10-21T20:13:59.689Z,87.05
2022-10-21T20:16:33.281Z,140.20
2022-10-21T20:19:02.481Z,90.78
2022-10-21T20:21:31.960Z,65.88
2022-10-21T20:23:59.673Z,41.58
2022-10-21T20:26:28.747Z,75.57
2022-10-21T20:28:56.305Z,47.65
2022-10-21T20:31:23.316Z,273.13
2022-10-21T20:33:52.110Z,362.92
2022-10-21T20:36:29.153Z,159.45
2022-10-21T20:38:59.528Z,209.07
2022-10-21T20:41:33.474Z,195.73
2022-10-21T20:44:02.532Z,57.30
2022-10-21T20:46:35.063Z,104.55
2022-10-21T20:49:07.186Z,48.55
2022-10-21T20:51:37.507Z,78.65
2022-10-21T20:54:17.677Z,135.40
2022-10-21T20:56:45.197Z,130.10
2022-10-21T20:59:17.417Z,144.63
2022-10-21T21:01:46.862Z,42.70
2022-10-21T21:04:16.543Z,108.97
2022-10-21T21:06:47.042Z,63.58
2022-10-21T21:12:04.460Z,45.17
2022-10-21T21:14:32.050Z,41.25
2022-10-21T21:16:58.877Z,46.35
2022-10-21T21:19:25.822Z,98.20
2022-10-21T21:21:53.178Z,37.05
2022-10-21T21:24:19.942Z,48.38
2022-10-21T21:26:46.962Z,26.67
2022-10-21T21:29:14.299Z,34.45
2022-10-21T21:31:42.581Z,40.13
2022-10-21T21:34:10.619Z,53.70
2022-10-21T21:36:37.822Z,101.50
2022-10-21T21:39:07.895Z,92.68
2022-10-21T21:41:35.957Z,131.20
2022-10-21T21:44:04.700Z,38.50
2022-10-21T21:46:31.509Z,52.22
2022-10-21T21:49:06.002Z,56.40
2022-10-21T21:51:35.881Z,52.58
2022-10-21T21:54:04.772Z,39.42
2022-10-21T21:56:31.597Z,100.75
2022-10-21T21:58:58.586Z,75.55
2022-10-21T22:01:29.267Z,96.88
2022-10-21T22:03:56.769Z,95.25
2022-10-21T22:06:28.095Z,54.63
2022-10-21T22:08:55.265Z,82.78
2022-10-21T22:11:25.705Z,211.73
2022-10-21T22:13:52.821Z,206.75
2022-10-21T22:16:21.961Z,195.93
2022-10-21T22:18:48.936Z,120.55
2022-10-21T22:21:18.374Z,66.68
2022-10-21T22:23:46.424Z,59.40
2022-10-21T22:26:15.136Z,94.38
2022-10-21T22:28:42.680Z,62.58
2022-10-21T22:31:14.523Z,100.68
2022-10-21T22:36:16.313Z,61.92
2022-10-21T22:38:44.783Z,58.65
2022-10-21T22:41:12.851Z,72.43
2022-10-21T22:43:40.510Z,49.47
2022-10-21T22:46:22.027Z,34.45
2022-10-21T22:48:54.253Z,27.73
2022-10-21T22:51:21.300Z,54.90
2022-10-21T22:53:53.458Z,40.75
2022-10-21T22:56:23.987Z,30.50
2022-10-21T22:58:50.765Z,36.72
2022-10-21T23:01:17.600Z,52.05
2022-10-21T23:03:44.347Z,48.85
2022-10-21T23:06:11.164Z,45.35
2022-10-21T23:08:38.100Z,42.97
2022-10-21T23:11:05.072Z,56.80
2022-10-21T23:13:31.941Z,69.15
2022-10-21T23:16:00.328Z,81.75
2022-10-21T23:18:27.117Z,143.00
2022-10-21T23:20:54.131Z,102.82
2022-10-21T23:23:20.984Z,59.78
2022-10-21T23:25:47.787Z,61.70
2022-10-21T23:28:14.672Z,39.38
2022-10-21T23:30:43.164Z,57.60
2022-10-21T23:33:10.270Z,42.75
2022-10-21T23:35:37.011Z,40.10
2022-10-21T23:38:03.746Z,65.63
2022-10-21T23:40:30.495Z,40.00
2022-10-21T23:42:57.238Z,34.83
2022-10-21T23:45:24.023Z,32.95
2022-10-21T23:47:50.831Z,32.65
2022-10-21T23:50:17.645Z,47.63
2022-10-21T23:52:44.365Z,95.45
2022-10-21T23:55:11.271Z,62.53
2022-10-21T23:57:38.264Z,66.78
